createdAt,value
2018-04-26T00:00:45.020Z,13.60
2018-04-26T00:03:16.339Z,13.60
2018-04-26T00:05:47.885Z,13.60
2018-04-26T00:08:19.337Z,13.70
2018-04-26T00:10:50.817Z,13.60
2018-04-26T00:13:22.909Z,13.60
2018-04-26T00:15:55.024Z,13.60
2018-04-26T00:18:26.418Z,13.60
2018-04-26T00:20:57.944Z,13.60
2018-04-26T00:23:28.958Z,13.60
2018-04-26T00:26:00.422Z,13.60
2018-04-26T00:28:31.851Z,13.60
2018-04-26T00:31:03.977Z,13.70
2018-04-26T00:33:35.360Z,13.60
2018-04-26T00:36:07.502Z,13.60
2018-04-26T00:38:38.848Z,13.60
2018-04-26T00:47:29.288Z,13.50
2018-04-26T00:50:01.433Z,13.50
2018-04-26T00:52:33.008Z,13.50
2018-04-26T00:55:04.359Z,13.50
2018-04-26T00:57:35.715Z,13.50
2018-04-26T01:00:07.134Z,13.50
2018-04-26T01:02:39.444Z,13.50
2018-04-26T01:05:11.553Z,13.50
2018-04-26T01:07:42.946Z,13.50
2018-04-26T01:10:15.945Z,13.40
2018-04-26T01:12:48.415Z,13.50
2018-04-26T01:15:19.751Z,13.40
2018-04-26T01:17:53.210Z,13.40
2018-04-26T01:20:25.988Z,13.40
2018-04-26T01:22:58.515Z,13.40
2018-04-26T01:25:30.230Z,13.40
2018-04-26T01:28:01.602Z,13.40
2018-04-26T01:30:33.015Z,13.40
2018-04-26T01:33:04.351Z,13.40
2018-04-26T01:35:36.460Z,13.40
2018-04-26T01:38:07.879Z,13.40
2018-04-26T01:40:40.015Z,13.40
2018-04-26T01:43:12.201Z,13.40
2018-04-26T01:45:43.547Z,13.40
2018-04-26T01:48:14.909Z,13.40
2018-04-26T01:50:46.278Z,13.50
2018-04-26T01:53:18.011Z,13.40
2018-04-26T01:55:50.125Z,13.40
2018-04-26T01:58:21.498Z,13.30
2018-04-26T02:00:52.913Z,13.40
2018-04-26T02:03:24.328Z,13.40
2018-04-26T02:05:57.213Z,13.30
2018-04-26T02:08:28.586Z,13.30
2018-04-26T02:11:00.007Z,13.30
2018-04-26T02:13:32.311Z,13.30
2018-04-26T02:16:03.679Z,13.30
2018-04-26T02:18:34.367Z,13.30
2018-04-26T02:21:05.748Z,13.30
2018-04-26T02:23:37.613Z,13.30
2018-04-26T02:26:09.723Z,13.30
2018-04-26T02:28:41.045Z,13.20
2018-04-26T02:31:12.418Z,13.30
2018-04-26T02:33:43.791Z,13.30
2018-04-26T02:36:15.913Z,13.20
2018-04-26T02:38:47.371Z,13.20
2018-04-26T02:41:18.903Z,13.30
2018-04-26T02:43:50.400Z,13.30
2018-04-26T02:46:21.906Z,13.30
2018-04-26T02:48:53.259Z,13.30
2018-04-26T02:51:24.522Z,13.30
2018-04-26T02:53:55.899Z,13.30
2018-04-26T02:56:27.443Z,13.30
2018-04-26T02:58:58.713Z,13.30
2018-04-26T03:01:29.922Z,13.30
2018-04-26T03:04:01.111Z,13.30
2018-04-26T03:06:32.293Z,13.30
2018-04-26T03:09:03.300Z,13.30
2018-04-26T03:11:34.514Z,13.30
2018-04-26T03:14:05.860Z,13.20
2018-04-26T03:16:38.022Z,13.10
2018-04-26T03:19:09.279Z,13.10
2018-04-26T03:21:40.719Z,13.10
2018-04-26T03:24:12.042Z,13.00
2018-04-26T03:26:43.380Z,13.00
2018-04-26T03:29:15.145Z,12.90
2018-04-26T03:31:47.270Z,12.90
2018-04-26T03:34:18.385Z,12.90
2018-04-26T03:36:49.732Z,12.90
2018-04-26T03:39:21.218Z,12.90
2018-04-26T03:41:52.560Z,12.80
2018-04-26T03:44:23.907Z,12.80
2018-04-26T03:46:55.401Z,12.80
2018-04-26T03:49:26.755Z,12.70
2018-04-26T03:51:59.501Z,12.70
2018-04-26T03:54:30.832Z,12.70
2018-04-26T03:57:02.174Z,12.60
2018-04-26T03:59:50.017Z,12.60
2018-04-26T04:05:46.841Z,12.70
2018-04-26T04:08:18.955Z,12.60
2018-04-26T04:10:50.270Z,12.60
2018-04-26T04:13:22.546Z,12.70
2018-04-26T04:15:54.965Z,12.70
2018-04-26T04:18:27.866Z,12.60
2018-04-26T04:20:59.253Z,12.60
2018-04-26T04:23:30.918Z,12.60
2018-04-26T04:26:03.016Z,12.70
2018-04-26T04:28:34.413Z,12.60
2018-04-26T04:31:06.524Z,12.70
2018-04-26T04:33:39.438Z,12.70
2018-04-26T04:36:10.807Z,12.70
2018-04-26T04:38:42.937Z,12.70
2018-04-26T04:41:14.393Z,12.70
2018-04-26T04:43:46.627Z,12.70
2018-04-26T04:46:18.735Z,12.70
2018-04-26T04:48:50.058Z,12.70
2018-04-26T04:51:22.155Z,12.70
2018-04-26T04:53:53.465Z,12.70
2018-04-26T04:56:25.861Z,12.60
2018-04-26T04:58:57.218Z,12.60
2018-04-26T05:01:28.641Z,12.60
2018-04-26T05:04:00.006Z,12.60
2018-04-26T05:06:31.536Z,12.40
2018-04-26T05:09:03.419Z,12.60
2018-04-26T05:11:34.805Z,12.60
2018-04-26T05:14:05.873Z,12.60
2018-04-26T05:16:38.007Z,12.70
2018-04-26T05:19:09.530Z,12.70
2018-04-26T05:21:40.859Z,12.70
2018-04-26T05:24:12.249Z,12.80
2018-04-26T05:26:43.634Z,12.80
2018-04-26T05:29:15.783Z,12.80
2018-04-26T05:31:47.154Z,12.70
2018-04-26T05:34:19.305Z,12.70
2018-04-26T05:36:51.617Z,12.70
2018-04-26T05:39:23.821Z,12.60
2018-04-26T05:41:55.143Z,12.60
2018-04-26T05:44:26.262Z,12.60
2018-04-26T05:46:57.626Z,12.50
2018-04-26T05:49:29.771Z,12.40
2018-04-26T05:52:01.318Z,12.40
2018-04-26T05:54:32.780Z,12.30
2018-04-26T05:57:04.454Z,12.30
2018-04-26T05:59:36.549Z,12.10
2018-04-26T06:02:08.038Z,12.10
2018-04-26T06:04:39.424Z,12.10
2018-04-26T06:07:11.765Z,12.00
2018-04-26T06:09:43.452Z,11.90
2018-04-26T06:12:15.561Z,11.90
2018-04-26T06:14:46.812Z,11.90
2018-04-26T06:17:18.208Z,11.80
2018-04-26T06:19:49.903Z,11.80
2018-04-26T06:22:21.247Z,11.70
2018-04-26T06:24:52.617Z,11.70
2018-04-26T06:27:23.955Z,11.70
2018-04-26T06:29:55.324Z,11.60
2018-04-26T06:32:27.195Z,11.70
2018-04-26T06:34:58.687Z,11.60
2018-04-26T06:37:30.925Z,11.70
2018-04-26T06:40:02.343Z,11.70
2018-04-26T06:42:33.698Z,11.70
2018-04-26T06:45:05.484Z,11.80
2018-04-26T06:47:37.032Z,11.80
2018-04-26T06:50:08.360Z,11.80
2018-04-26T06:52:39.897Z,11.90
2018-04-26T06:55:12.075Z,12.00
2018-04-26T06:57:44.216Z,12.00
2018-04-26T07:00:16.422Z,12.10
2018-04-26T07:02:47.784Z,12.10
2018-04-26T07:05:19.153Z,12.10
2018-04-26T07:07:50.534Z,12.20
2018-04-26T07:10:22.204Z,12.30
2018-04-26T07:12:54.217Z,12.30
2018-04-26T07:15:25.567Z,12.40
2018-04-26T07:17:57.071Z,12.40
2018-04-26T07:20:28.585Z,12.50
2018-04-26T07:22:59.965Z,12.50
2018-04-26T07:25:31.287Z,12.50
2018-04-26T07:28:02.706Z,12.60
2018-04-26T07:30:34.368Z,12.70
2018-04-26T07:33:05.385Z,12.70
2018-04-26T07:35:36.769Z,12.80
2018-04-26T07:38:08.376Z,12.90
2018-04-26T07:40:40.756Z,13.10
2018-04-26T07:43:12.907Z,13.20
2018-04-26T07:45:44.281Z,13.20
2018-04-26T07:48:15.936Z,13.30
2018-04-26T07:50:47.435Z,13.40
2018-04-26T07:53:18.831Z,13.50
2018-04-26T07:55:50.205Z,13.60
2018-04-26T07:58:21.610Z,13.70
2018-04-26T08:00:53.233Z,13.80
2018-04-26T08:03:24.980Z,13.80
2018-04-26T08:05:56.360Z,13.90
2018-04-26T08:08:27.749Z,14.00
2018-04-26T08:10:59.641Z,14.20
2018-04-26T08:13:31.485Z,14.20
2018-04-26T08:16:03.832Z,14.30
2018-04-26T08:18:35.187Z,14.20
2018-04-26T08:21:07.572Z,14.40
2018-04-26T08:23:38.874Z,14.40
2018-04-26T08:26:10.331Z,14.40
2018-04-26T08:28:41.957Z,14.50
2018-04-26T08:31:13.414Z,14.50
2018-04-26T08:33:45.281Z,14.50
2018-04-26T08:36:16.661Z,14.50
2018-04-26T08:38:48.148Z,14.60
2018-04-26T08:41:19.442Z,14.60
2018-04-26T08:43:50.902Z,14.60
2018-04-26T08:46:23.837Z,14.80
2018-04-26T08:48:55.194Z,14.70
2018-04-26T08:51:26.644Z,14.90
2018-04-26T08:53:58.528Z,15.00
2018-04-26T08:56:30.569Z,15.20
2018-04-26T08:59:01.963Z,15.10
2018-04-26T09:01:33.349Z,15.20
2018-04-26T09:04:05.515Z,15.30
2018-04-26T09:06:36.941Z,15.30
2018-04-26T09:09:09.506Z,15.50
2018-04-26T09:11:40.921Z,15.40
2018-04-26T09:14:13.470Z,15.60
2018-04-26T09:16:44.844Z,15.60
2018-04-26T09:19:16.255Z,15.60
2018-04-26T09:21:47.650Z,15.70
2018-04-26T09:24:20.092Z,15.80
2018-04-26T09:26:51.592Z,15.80
2018-04-26T09:29:23.038Z,15.90
2018-04-26T09:31:54.414Z,16.00
2018-04-26T09:34:25.817Z,16.00
2018-04-26T09:36:57.385Z,16.10
2018-04-26T09:39:28.976Z,16.10
2018-04-26T09:42:00.612Z,16.20
2018-04-26T09:44:32.045Z,16.20
2018-04-26T09:47:04.126Z,16.30
2018-04-26T09:49:35.528Z,16.20
2018-04-26T09:52:07.246Z,16.30
2018-04-26T09:54:38.658Z,16.30
2018-04-26T09:57:10.710Z,16.30
2018-04-26T09:59:42.477Z,16.40
2018-04-26T10:02:14.391Z,16.70
2018-04-26T10:04:51.614Z,16.70
2018-04-26T10:07:23.042Z,16.90
2018-04-26T10:09:54.459Z,17.20
2018-04-26T10:12:25.824Z,17.30
2018-04-26T10:14:57.246Z,17.50
2018-04-26T10:17:29.398Z,17.70
2018-04-26T10:20:00.741Z,17.60
2018-04-26T10:22:32.585Z,17.70
2018-04-26T10:25:04.975Z,17.70
2018-04-26T10:27:37.249Z,17.70
2018-04-26T10:30:08.863Z,17.60
2018-04-26T10:32:40.227Z,17.60
2018-04-26T10:35:11.799Z,17.60
2018-04-26T10:37:43.144Z,17.60
2018-04-26T10:40:14.527Z,17.60
2018-04-26T10:42:48.282Z,18.00
2018-04-26T10:45:19.606Z,18.00
2018-04-26T10:47:51.026Z,18.10
2018-04-26T10:50:22.555Z,18.10
2018-04-26T10:52:55.248Z,18.20
2018-04-26T10:55:26.933Z,18.20
2018-04-26T10:57:58.276Z,18.30
2018-04-26T11:00:29.699Z,18.30
2018-04-26T11:03:01.878Z,18.30
2018-04-26T11:05:33.327Z,18.30
2018-04-26T11:08:04.799Z,18.30
2018-04-26T11:10:36.991Z,18.10
2018-04-26T11:13:08.407Z,18.10
2018-04-26T11:15:39.822Z,18.20
2018-04-26T11:18:11.295Z,18.30
2018-04-26T11:20:43.510Z,18.60
2018-04-26T11:23:14.863Z,18.60
2018-04-26T11:25:47.440Z,18.80
2018-04-26T11:28:18.835Z,19.10
2018-04-26T11:30:50.199Z,19.30
2018-04-26T11:33:21.583Z,19.60
2018-04-26T11:35:52.960Z,19.90
2018-04-26T11:38:24.793Z,20.20
2018-04-26T11:40:56.167Z,20.60
2018-04-26T11:43:27.696Z,21.10
2018-04-26T11:45:59.133Z,21.70
2018-04-26T11:48:30.519Z,22.20
2018-04-26T11:51:02.671Z,23.00
2018-04-26T11:53:34.131Z,23.00
2018-04-26T11:56:05.738Z,23.40
2018-04-26T11:58:37.152Z,23.90
2018-04-26T12:01:08.694Z,24.30
2018-04-26T12:03:40.903Z,24.30
2018-04-26T12:06:12.528Z,24.30
2018-04-26T12:08:43.942Z,24.00
2018-04-26T12:11:15.580Z,23.60
2018-04-26T12:13:47.306Z,23.10
2018-04-26T12:16:18.656Z,22.60
2018-04-26T12:18:50.646Z,22.10
2018-04-26T12:21:22.022Z,21.70
2018-04-26T12:23:54.574Z,21.40
2018-04-26T12:26:26.038Z,21.40
2018-04-26T12:28:57.383Z,21.60
2018-04-26T12:31:28.835Z,21.80
2018-04-26T12:34:00.278Z,21.90
2018-04-26T12:36:31.389Z,21.90
2018-04-26T12:39:02.743Z,21.70
2018-04-26T12:41:34.388Z,21.50
2018-04-26T12:44:05.903Z,21.20
2018-04-26T12:46:38.088Z,20.80
2018-04-26T12:49:10.375Z,20.90
2018-04-26T12:51:42.521Z,21.20
2018-04-26T12:54:14.676Z,21.60
2018-04-26T12:56:46.136Z,21.60
2018-04-26T12:59:18.277Z,22.30
2018-04-26T13:01:49.637Z,22.30
2018-04-26T13:04:21.347Z,22.40
2018-04-26T13:06:52.849Z,22.50
2018-04-26T13:09:24.590Z,22.50
2018-04-26T13:11:56.056Z,22.50
2018-04-26T13:14:27.890Z,22.40
2018-04-26T13:16:59.273Z,22.10
2018-04-26T13:19:30.731Z,21.90
2018-04-26T13:22:01.860Z,21.60
2018-04-26T13:24:33.443Z,21.20
2018-04-26T13:27:05.724Z,20.30
2018-04-26T13:29:38.303Z,19.80
2018-04-26T13:32:09.633Z,19.80
2018-04-26T13:34:41.789Z,19.00
2018-04-26T13:37:13.507Z,19.00
2018-04-26T13:39:45.043Z,18.70
2018-04-26T13:42:16.431Z,18.60
2018-04-26T13:44:47.851Z,18.50
2018-04-26T13:47:19.226Z,18.40
2018-04-26T13:49:50.995Z,18.40
2018-04-26T13:52:22.347Z,18.30
2018-04-26T13:54:53.707Z,18.20
2018-04-26T13:57:25.087Z,18.10
2018-04-26T13:59:57.198Z,18.10
2018-04-26T14:02:30.468Z,18.00
2018-04-26T14:05:02.588Z,18.00
2018-04-26T14:07:34.917Z,18.10
2018-04-26T14:10:07.034Z,18.20
2018-04-26T14:12:38.965Z,18.20
2018-04-26T14:15:10.143Z,18.10
2018-04-26T14:17:41.784Z,18.20
2018-04-26T14:20:13.305Z,18.30
2018-04-26T14:22:44.755Z,18.20
2018-04-26T14:25:16.121Z,18.20
2018-04-26T14:27:47.510Z,18.30
2018-04-26T14:30:19.788Z,18.20
2018-04-26T14:32:50.941Z,18.20
2018-04-26T14:35:22.291Z,18.20
2018-04-26T14:37:54.125Z,18.10
2018-04-26T14:40:25.477Z,18.10
2018-04-26T14:42:56.870Z,18.10
2018-04-26T14:45:28.428Z,18.10
2018-04-26T14:47:59.820Z,18.10
2018-04-26T14:50:31.145Z,18.10
2018-04-26T14:53:02.621Z,18.10
2018-04-26T14:55:33.787Z,18.10
2018-04-26T14:58:05.606Z,18.40
2018-04-26T15:00:36.973Z,18.40
2018-04-26T15:03:08.642Z,18.10
2018-04-26T15:05:41.702Z,18.00
2018-04-26T15:08:13.074Z,18.00
2018-04-26T15:10:44.596Z,18.00
2018-04-26T15:13:16.025Z,17.90
2018-04-26T15:15:48.211Z,17.80
2018-04-26T15:18:19.568Z,17.80
2018-04-26T15:20:51.885Z,17.60
2018-04-26T15:23:23.290Z,17.60
2018-04-26T15:25:55.661Z,17.60
2018-04-26T15:28:27.560Z,17.50
2018-04-26T15:30:59.838Z,17.50
2018-04-26T15:33:31.262Z,17.40
2018-04-26T15:36:02.669Z,17.30
2018-04-26T15:38:34.333Z,17.20
2018-04-26T15:41:05.596Z,17.10
2018-04-26T15:43:37.820Z,16.90
2018-04-26T15:46:09.298Z,16.80
2018-04-26T15:48:40.678Z,16.80
2018-04-26T15:51:13.049Z,16.60
2018-04-26T15:54:01.226Z,16.60
2018-04-26T15:56:59.166Z,16.60
2018-04-26T15:59:47.479Z,16.60
2018-04-26T16:05:51.122Z,16.70
2018-04-26T16:08:39.863Z,16.70
2018-04-26T16:11:28.083Z,16.70
2018-04-26T16:14:07.040Z,16.70
2018-04-26T16:16:50.361Z,16.70
2018-04-26T16:23:05.258Z,16.70
2018-04-26T16:25:53.632Z,16.70
2018-04-26T16:28:46.900Z,16.70
2018-04-26T16:31:41.409Z,16.80
2018-04-26T16:34:44.531Z,16.80
2018-04-26T16:37:38.097Z,16.80
2018-04-26T16:40:09.462Z,16.80
2018-04-26T16:42:40.926Z,16.80
2018-04-26T16:45:12.305Z,16.80
2018-04-26T16:47:43.720Z,16.90
2018-04-26T16:50:14.884Z,16.90
2018-04-26T16:52:46.297Z,16.90
2018-04-26T16:55:17.803Z,16.90
2018-04-26T16:57:49.155Z,16.90
2018-04-26T17:00:20.478Z,16.90
2018-04-26T17:02:52.066Z,16.90
2018-04-26T17:05:23.469Z,16.90
2018-04-26T17:07:54.900Z,16.80
2018-04-26T17:10:26.641Z,16.80
2018-04-26T17:12:58.019Z,16.80
2018-04-26T17:15:29.558Z,16.80
2018-04-26T17:18:01.051Z,16.80
2018-04-26T17:20:33.271Z,16.90
2018-04-26T17:23:05.232Z,16.90
2018-04-26T17:25:37.022Z,16.90
2018-04-26T17:28:08.420Z,16.90
2018-04-26T17:30:40.354Z,16.80
2018-04-26T17:33:11.758Z,16.80
2018-04-26T17:35:43.371Z,16.80
2018-04-26T17:38:15.485Z,16.70
2018-04-26T17:40:46.882Z,16.60
2018-04-26T17:43:18.246Z,16.60
2018-04-26T17:45:50.781Z,16.50
2018-04-26T17:48:22.742Z,16.50
2018-04-26T17:50:54.109Z,16.50
2018-04-26T17:53:25.550Z,16.50
2018-04-26T17:55:57.070Z,16.40
2018-04-26T17:58:28.326Z,16.40
2018-04-26T18:00:59.838Z,16.40
2018-04-26T18:03:31.546Z,16.30
2018-04-26T18:06:03.027Z,16.30
2018-04-26T18:08:35.331Z,16.30
2018-04-26T18:11:07.109Z,16.20
2018-04-26T18:13:38.611Z,16.20
2018-04-26T18:16:10.260Z,16.10
2018-04-26T18:18:42.419Z,16.10
2018-04-26T18:21:14.677Z,16.00
2018-04-26T18:23:45.924Z,15.90
2018-04-26T18:26:17.370Z,15.90
2018-04-26T18:28:49.274Z,15.80
2018-04-26T18:31:20.674Z,15.70
2018-04-26T18:33:52.499Z,15.70
2018-04-26T18:36:24.661Z,15.50
2018-04-26T18:38:56.071Z,15.60
2018-04-26T18:41:28.266Z,15.40
2018-04-26T18:43:59.987Z,15.40
2018-04-26T18:46:31.360Z,15.30
2018-04-26T18:49:02.730Z,15.20
2018-04-26T18:51:34.229Z,15.10
2018-04-26T18:54:06.502Z,15.00
2018-04-26T18:56:38.648Z,15.00
2018-04-26T18:59:10.377Z,14.90
2018-04-26T19:01:41.770Z,14.90
2018-04-26T19:04:13.922Z,14.80
2018-04-26T19:06:45.651Z,14.80
2018-04-26T19:09:17.182Z,14.80
2018-04-26T19:11:48.560Z,14.80
2018-04-26T19:14:20.024Z,14.70
2018-04-26T19:16:51.579Z,14.70
2018-04-26T19:19:22.910Z,14.70
2018-04-26T19:21:54.486Z,14.70
2018-04-26T19:24:25.866Z,14.60
2018-04-26T19:26:57.302Z,14.60
2018-04-26T19:29:29.448Z,14.50
2018-04-26T19:32:01.039Z,14.50
2018-04-26T19:34:32.528Z,14.50
2018-04-26T19:37:04.789Z,14.40
2018-04-26T19:39:36.599Z,14.40
2018-04-26T19:42:09.353Z,14.30
2018-04-26T19:44:41.231Z,14.30
2018-04-26T19:47:13.045Z,14.30
2018-04-26T19:49:45.138Z,14.10
2018-04-26T19:52:16.624Z,14.10
2018-04-26T19:54:48.497Z,14.10
2018-04-26T19:57:20.654Z,14.00
2018-04-26T19:59:52.801Z,14.00
2018-04-26T20:02:24.324Z,13.90
2018-04-26T20:04:55.975Z,13.90
2018-04-26T20:07:28.118Z,13.80
2018-04-26T20:10:00.266Z,13.80
2018-04-26T20:12:31.835Z,13.80
2018-04-26T20:15:03.782Z,13.70
2018-04-26T20:17:35.167Z,13.70
2018-04-26T20:20:05.588Z,13.60
2018-04-26T20:22:37.181Z,13.60
2018-04-26T20:25:08.625Z,13.60
2018-04-26T20:27:41.435Z,13.50
2018-04-26T20:30:12.817Z,13.50
2018-04-26T20:32:44.714Z,13.40
2018-04-26T20:35:16.243Z,13.40
2018-04-26T20:37:47.625Z,13.40
2018-04-26T20:40:18.980Z,13.30
2018-04-26T20:42:50.362Z,13.30
2018-04-26T20:45:21.686Z,13.30
2018-04-26T20:47:53.109Z,13.30
2018-04-26T20:50:25.303Z,13.20
2018-04-26T20:52:56.809Z,13.20
2018-04-26T20:55:29.122Z,13.10
2018-04-26T20:58:01.278Z,13.10
2018-04-26T21:00:32.662Z,13.10
2018-04-26T21:03:04.043Z,13.10
2018-04-26T21:05:36.407Z,13.00
2018-04-26T21:08:07.738Z,13.00
2018-04-26T21:10:39.062Z,13.00
2018-04-26T21:13:10.471Z,13.00
2018-04-26T21:15:41.842Z,12.90
2018-04-26T21:18:13.230Z,13.00
2018-04-26T21:20:44.621Z,12.90
2018-04-26T21:23:18.030Z,12.80
2018-04-26T21:25:49.377Z,12.80
2018-04-26T21:28:20.816Z,12.80
2018-04-26T21:30:52.128Z,12.80
2018-04-26T21:33:23.545Z,12.70
2018-04-26T21:35:55.639Z,12.60
2018-04-26T21:38:27.059Z,12.60
2018-04-26T21:40:59.219Z,12.60
2018-04-26T21:43:31.695Z,12.50
2018-04-26T21:46:03.864Z,12.50
2018-04-26T21:48:35.262Z,12.40
2018-04-26T21:51:12.067Z,12.50
2018-04-26T21:53:49.029Z,12.40
2018-04-26T21:56:25.979Z,12.40
2018-04-26T21:59:02.631Z,12.30
2018-04-26T22:01:40.011Z,12.30
2018-04-26T22:07:19.061Z,12.70
2018-04-26T22:09:50.584Z,12.20
2018-04-26T22:12:21.966Z,12.20
2018-04-26T22:14:53.459Z,12.20
2018-04-26T22:17:24.829Z,12.20
2018-04-26T22:19:56.225Z,12.10
2018-04-26T22:22:27.593Z,12.10
2018-04-26T22:24:59.341Z,12.10
2018-04-26T22:27:30.800Z,12.00
2018-04-26T22:30:02.462Z,12.00
2018-04-26T22:32:34.785Z,12.00
2018-04-26T22:35:06.128Z,11.90
2018-04-26T22:37:38.110Z,11.90
2018-04-26T22:40:09.629Z,11.90
2018-04-26T22:42:41.855Z,11.90
2018-04-26T22:45:13.189Z,11.90
2018-04-26T22:47:44.465Z,11.90
2018-04-26T22:50:15.828Z,11.90
2018-04-26T22:52:47.215Z,11.90
2018-04-26T22:55:19.467Z,11.90
2018-04-26T22:57:51.090Z,11.90
2018-04-26T23:00:21.815Z,11.90
2018-04-26T23:02:53.202Z,11.80
2018-04-26T23:05:24.538Z,11.80
2018-04-26T23:07:56.977Z,11.80
2018-04-26T23:10:28.348Z,11.70
2018-04-26T23:13:00.617Z,11.70
2018-04-26T23:15:32.794Z,11.70
2018-04-26T23:18:05.042Z,11.70
2018-04-26T23:20:36.371Z,11.70
2018-04-26T23:23:07.817Z,11.70
2018-04-26T23:25:39.185Z,11.60
2018-04-26T23:28:10.541Z,11.60
2018-04-26T23:30:42.377Z,11.50
2018-04-26T23:33:13.892Z,11.50
2018-04-26T23:35:45.231Z,11.50
2018-04-26T23:38:17.366Z,11.40
2018-04-26T23:40:49.725Z,11.40
2018-04-26T23:43:21.057Z,11.30
2018-04-26T23:45:52.441Z,11.40
2018-04-26T23:48:23.767Z,11.30
2018-04-26T23:50:55.141Z,11.30
2018-04-26T23:53:26.963Z,11.50
2018-04-26T23:55:59.057Z,11.30
2018-04-26T23:58:31.894Z,11.30
